createdAt,value
2022-08-19T00:01:10.713Z,21.43
2022-08-19T00:06:13.800Z,26.63
2022-08-19T00:11:25.458Z,19.73
2022-08-19T00:16:30.560Z,23.30
2022-08-19T00:21:33.787Z,25.73
2022-08-19T00:26:37.993Z,35.90
2022-08-19T00:31:44.356Z,23.07
2022-08-19T00:36:47.792Z,24.07
2022-08-19T00:41:52.090Z,24.20
2022-08-19T00:46:59.954Z,22.70
2022-08-19T00:52:09.484Z,25.57
2022-08-19T00:57:17.688Z,24.90
2022-08-19T01:02:22.260Z,26.70
2022-08-19T01:07:26.748Z,25.93
2022-08-19T01:12:31.887Z,29.67
2022-08-19T01:17:38.498Z,25.67
2022-08-19T01:22:47.230Z,25.10
2022-08-19T01:27:53.386Z,25.00
2022-08-19T01:32:57.221Z,25.90
2022-08-19T01:38:09.350Z,27.80
2022-08-19T01:43:12.561Z,23.30
2022-08-19T01:48:16.528Z,23.53
2022-08-19T01:53:20.989Z,25.07
2022-08-19T01:58:33.487Z,24.37
2022-08-19T02:03:36.748Z,24.53
2022-08-19T02:08:41.931Z,27.00
2022-08-19T02:13:45.067Z,27.80
2022-08-19T02:18:49.617Z,23.70
2022-08-19T02:23:54.685Z,24.37
2022-08-19T02:28:58.244Z,25.50
2022-08-19T02:34:03.202Z,27.57
2022-08-19T02:39:07.675Z,23.13
2022-08-19T02:44:29.448Z,25.80
2022-08-19T02:49:34.678Z,25.67
2022-08-19T02:54:39.608Z,25.23
2022-08-19T02:59:42.667Z,23.63
2022-08-19T03:04:45.778Z,27.57
2022-08-19T03:09:50.296Z,26.03
2022-08-19T03:14:53.833Z,28.57
2022-08-19T03:19:56.895Z,31.20
2022-08-19T03:25:01.756Z,30.27
2022-08-19T03:30:06.137Z,29.33
2022-08-19T03:35:10.137Z,29.60
2022-08-19T03:40:14.651Z,28.47
2022-08-19T03:45:20.586Z,24.87
2022-08-19T03:50:23.704Z,26.63
2022-08-19T03:55:28.177Z,28.70
2022-08-19T04:00:31.269Z,27.07
2022-08-19T04:05:34.365Z,28.30
2022-08-19T04:10:39.381Z,24.63
2022-08-19T04:15:43.110Z,28.70
2022-08-19T04:20:50.199Z,24.90
2022-08-19T04:25:54.653Z,27.10
2022-08-19T04:30:58.487Z,30.30
2022-08-19T04:36:01.571Z,28.47
2022-08-19T04:41:23.595Z,28.70
2022-08-19T04:46:39.560Z,26.30
2022-08-19T04:51:45.391Z,28.70
2022-08-19T04:56:50.928Z,25.10
2022-08-19T05:01:53.981Z,29.53
2022-08-19T05:07:00.913Z,31.90
2022-08-19T05:12:06.898Z,28.47
2022-08-19T05:22:36.695Z,30.83
2022-08-19T05:27:41.271Z,27.37
2022-08-19T05:32:44.937Z,28.30
2022-08-19T05:37:47.997Z,26.43
2022-08-19T05:42:55.204Z,24.07
2022-08-19T05:47:59.330Z,22.93
2022-08-19T05:53:02.439Z,25.03
2022-08-19T05:58:08.658Z,20.73
2022-08-19T06:03:12.878Z,19.27
2022-08-19T06:08:19.488Z,17.83
2022-08-19T06:13:26.817Z,18.83
2022-08-19T06:18:36.350Z,15.77
2022-08-19T06:23:39.985Z,15.73
2022-08-19T06:28:47.559Z,17.23
2022-08-19T06:33:51.503Z,19.50
2022-08-19T06:38:55.674Z,13.33
2022-08-19T06:44:00.161Z,17.03
2022-08-19T06:49:03.866Z,14.63
2022-08-19T06:54:19.466Z,20.30
2022-08-19T06:59:28.194Z,21.27
2022-08-19T07:04:33.399Z,25.63
2022-08-19T07:09:38.531Z,27.03
2022-08-19T07:14:43.776Z,22.23
2022-08-19T07:19:46.879Z,22.70
2022-08-19T07:24:51.155Z,20.57
2022-08-19T07:29:57.627Z,24.60
2022-08-19T07:35:04.443Z,21.03
2022-08-19T07:40:09.272Z,21.43
2022-08-19T07:45:13.972Z,21.77
2022-08-19T07:50:19.051Z,22.27
2022-08-19T07:55:41.944Z,21.10
2022-08-19T08:00:50.137Z,21.77
2022-08-19T08:06:22.130Z,23.20
2022-08-19T08:11:25.217Z,26.67
2022-08-19T08:16:39.714Z,22.93
2022-08-19T08:21:51.009Z,27.43
2022-08-19T08:26:57.602Z,24.40
2022-08-19T08:32:02.573Z,23.27
2022-08-19T08:37:05.871Z,26.20
2022-08-19T08:42:16.803Z,27.67
2022-08-19T08:47:23.910Z,18.93
2022-08-19T08:52:32.132Z,23.10
2022-08-19T08:57:42.475Z,21.77
2022-08-19T09:02:50.581Z,19.17
2022-08-19T09:08:02.805Z,19.50
2022-08-19T09:13:14.431Z,17.83
2022-08-19T09:18:19.804Z,15.27
2022-08-19T09:23:26.675Z,14.13
2022-08-19T09:28:30.315Z,13.93
2022-08-19T09:33:36.968Z,16.67
2022-08-19T09:38:43.688Z,14.23
2022-08-19T09:43:50.258Z,16.20
2022-08-19T09:48:55.771Z,17.73
2022-08-19T09:54:02.373Z,16.33
2022-08-19T09:59:08.292Z,16.93
2022-08-19T10:04:19.819Z,12.83
2022-08-19T10:09:33.848Z,13.40
2022-08-19T10:14:37.690Z,13.70
2022-08-19T10:19:43.789Z,10.77
2022-08-19T10:24:58.403Z,12.03
2022-08-19T10:30:02.291Z,10.70
2022-08-19T10:35:09.306Z,17.10
2022-08-19T10:40:13.086Z,10.03
2022-08-19T10:45:16.193Z,8.93
2022-08-19T10:50:38.362Z,7.70
2022-08-19T10:55:59.801Z,6.53
2022-08-19T11:01:03.155Z,5.87
2022-08-19T11:06:09.829Z,6.47
2022-08-19T11:11:13.443Z,6.57
2022-08-19T11:16:19.851Z,7.38
2022-08-19T11:21:26.722Z,6.32
2022-08-19T11:26:31.489Z,10.23
2022-08-19T11:31:38.213Z,7.70
2022-08-19T11:36:45.847Z,10.93
2022-08-19T11:41:50.125Z,8.45
2022-08-19T11:46:53.621Z,11.43
2022-08-19T11:51:59.347Z,14.40
2022-08-19T11:57:04.408Z,16.57
2022-08-19T12:02:07.995Z,15.48
2022-08-19T12:07:12.527Z,14.95
2022-08-19T12:12:16.447Z,18.75
2022-08-19T12:17:19.907Z,20.75
2022-08-19T12:22:24.715Z,20.47
2022-08-19T12:27:40.020Z,26.10
2022-08-19T12:32:44.497Z,23.80
2022-08-19T12:37:56.630Z,22.53
2022-08-19T12:43:01.297Z,25.00
2022-08-19T12:48:32.957Z,23.73
2022-08-19T12:53:30.125Z,24.67
2022-08-19T12:58:35.462Z,28.77
2022-08-19T13:03:40.738Z,31.10
2022-08-19T13:08:45.248Z,22.80
2022-08-19T13:13:52.080Z,31.30
2022-08-19T13:18:56.847Z,29.30
2022-08-19T13:24:01.451Z,27.00
2022-08-19T13:29:21.993Z,30.37
2022-08-19T13:34:31.272Z,27.07
2022-08-19T13:39:36.819Z,36.00
2022-08-19T13:44:39.972Z,38.03
2022-08-19T13:49:44.546Z,35.10
2022-08-19T13:54:49.546Z,40.30
2022-08-19T13:59:52.607Z,45.97
2022-08-19T14:04:55.745Z,41.70
2022-08-19T14:10:03.743Z,43.53
2022-08-19T14:15:08.904Z,41.50
2022-08-19T14:20:17.734Z,42.97
2022-08-19T14:25:27.624Z,40.57
2022-08-19T14:30:33.271Z,37.20
2022-08-19T14:35:36.689Z,35.37
2022-08-19T14:40:43.017Z,34.60
2022-08-19T14:45:46.332Z,39.13
2022-08-19T14:50:50.090Z,46.97
2022-08-19T14:55:54.608Z,42.27
2022-08-19T15:00:58.612Z,43.13
2022-08-19T15:06:02.970Z,40.13
2022-08-19T15:11:11.673Z,37.20
2022-08-19T15:16:18.064Z,38.20
2022-08-19T15:21:26.855Z,33.27
2022-08-19T15:26:33.455Z,32.30
2022-08-19T15:31:38.151Z,31.80
2022-08-19T15:36:41.893Z,32.72
2022-08-19T15:41:46.786Z,33.63
2022-08-19T15:46:50.765Z,32.33
2022-08-19T15:51:54.244Z,34.83
2022-08-19T15:57:16.095Z,33.67
2022-08-19T16:02:38.950Z,31.70
2022-08-19T16:07:42.024Z,33.83
2022-08-19T16:12:46.583Z,32.77
2022-08-19T16:17:56.671Z,31.20
2022-08-19T16:23:01.016Z,30.77
2022-08-19T16:28:06.652Z,28.42
2022-08-19T16:33:11.340Z,40.67
2022-08-19T16:38:14.615Z,28.37
2022-08-19T16:43:19.716Z,27.53
2022-08-19T16:48:23.927Z,27.70
2022-08-19T16:53:29.314Z,24.13
2022-08-19T16:58:37.021Z,29.93
2022-08-19T17:03:40.627Z,31.77
2022-08-19T17:08:46.875Z,31.20
2022-08-19T17:13:53.788Z,33.10
2022-08-19T17:18:59.021Z,27.13
2022-08-19T17:24:03.460Z,28.80
2022-08-19T17:29:08.104Z,32.93
2022-08-19T17:34:11.168Z,32.57
2022-08-19T17:39:14.294Z,25.67
2022-08-19T17:44:19.083Z,29.80
2022-08-19T17:49:22.258Z,26.10
2022-08-19T17:54:25.440Z,26.70
2022-08-19T17:59:39.050Z,26.23
2022-08-19T18:04:45.509Z,27.47
2022-08-19T18:09:52.900Z,27.03
2022-08-19T18:14:59.246Z,24.13
2022-08-19T18:20:02.415Z,24.80
2022-08-19T18:25:08.810Z,26.77
2022-08-19T18:30:14.200Z,32.93
2022-08-19T18:35:20.744Z,30.67
2022-08-19T18:40:43.638Z,31.40
2022-08-19T18:46:07.235Z,30.47
2022-08-19T18:51:11.171Z,30.20
2022-08-19T18:56:16.890Z,32.80
2022-08-19T19:01:26.157Z,32.90
2022-08-19T19:06:35.908Z,30.43
2022-08-19T19:11:44.030Z,30.30
2022-08-19T19:16:48.582Z,38.47
2022-08-19T19:21:53.186Z,37.50
2022-08-19T19:26:57.583Z,36.37
2022-08-19T19:32:02.217Z,34.07
2022-08-19T19:37:05.438Z,34.83
2022-08-19T19:42:12.620Z,36.67
2022-08-19T19:47:25.726Z,37.70
2022-08-19T19:52:28.958Z,33.00
2022-08-19T19:57:32.075Z,35.33
2022-08-19T20:02:36.631Z,35.60
2022-08-19T20:07:53.942Z,33.33
2022-08-19T20:12:57.323Z,34.50
2022-08-19T20:18:02.459Z,30.60
2022-08-19T20:23:06.477Z,33.27
2022-08-19T20:28:10.772Z,36.90
2022-08-19T20:33:16.990Z,34.77
2022-08-19T20:38:20.084Z,31.73
2022-08-19T20:43:23.287Z,30.57
2022-08-19T20:48:27.909Z,28.27
2022-08-19T20:53:31.322Z,25.70
2022-08-19T20:58:35.726Z,28.33
2022-08-19T21:03:43.149Z,32.60
2022-08-19T21:08:47.030Z,34.80
2022-08-19T21:13:52.245Z,30.60
2022-08-19T21:18:57.204Z,30.17
2022-08-19T21:24:00.337Z,27.73
2022-08-19T21:29:03.452Z,33.20
2022-08-19T21:34:07.980Z,26.83
2022-08-19T21:39:11.151Z,31.20
2022-08-19T21:44:14.263Z,28.63
2022-08-19T21:49:19.760Z,26.57
2022-08-19T21:54:22.836Z,29.87
2022-08-19T21:59:26.049Z,27.47
2022-08-19T22:04:30.535Z,26.30
2022-08-19T22:09:33.696Z,32.63
2022-08-19T22:14:37.356Z,28.20
2022-08-19T22:19:41.862Z,24.30
2022-08-19T22:24:44.957Z,29.07
2022-08-19T22:29:48.099Z,26.60
2022-08-19T22:34:59.177Z,29.63
2022-08-19T22:40:05.475Z,28.17
2022-08-19T22:45:11.623Z,27.73
2022-08-19T22:50:16.087Z,32.07
2022-08-19T22:55:19.175Z,28.17
2022-08-19T23:00:24.607Z,29.87
2022-08-19T23:05:30.418Z,28.73
2022-08-19T23:10:34.633Z,35.83
2022-08-19T23:15:38.124Z,30.03
2022-08-19T23:20:44.802Z,29.87
2022-08-19T23:25:48.373Z,35.00
2022-08-19T23:30:53.749Z,32.73
2022-08-19T23:36:00.115Z,25.50
2022-08-19T23:41:05.690Z,33.90
2022-08-19T23:46:10.637Z,35.00
2022-08-19T23:51:17.613Z,30.47
2022-08-19T23:56:21.567Z,35.57
